sensor_id;sensor_type;location;lat;lon;timestamp;pressure;altitude;pressure_sealevel;temperature;humidity
54920;BME280;63804;53.120;8.764;2023-04-21T00:01:55;102006.53;;;9.67;71.66
54920;BME280;63804;53.120;8.764;2023-04-21T00:04:24;102002.50;;;9.60;71.84
54920;BME280;63804;53.120;8.764;2023-04-21T00:06:51;102001.88;;;9.55;72.29
54920;BME280;63804;53.120;8.764;2023-04-21T00:09:19;101995.94;;;9.49;72.21
54920;BME280;63804;53.120;8.764;2023-04-21T00:11:47;101995.72;;;9.54;72.13
54920;BME280;63804;53.120;8.764;2023-04-21T00:14:14;101994.09;;;9.51;71.99
54920;BME280;63804;53.120;8.764;2023-04-21T00:16:41;101994.78;;;9.55;72.24
54920;BME280;63804;53.120;8.764;2023-04-21T00:19:08;101993.69;;;9.59;71.81
54920;BME280;63804;53.120;8.764;2023-04-21T00:21:35;101994.66;;;9.58;71.86
54920;BME280;63804;53.120;8.764;2023-04-21T00:24:02;101984.25;;;9.53;72.07
54920;BME280;63804;53.120;8.764;2023-04-21T00:26:29;101979.06;;;9.52;71.91
54920;BME280;63804;53.120;8.764;2023-04-21T00:28:56;101986.06;;;9.53;72.03
54920;BME280;63804;53.120;8.764;2023-04-21T00:31:23;101979.91;;;9.52;72.05
54920;BME280;63804;53.120;8.764;2023-04-21T00:33:50;101984.50;;;9.49;71.99
54920;BME280;63804;53.120;8.764;2023-04-21T00:36:17;101975.47;;;9.53;72.08
54920;BME280;63804;53.120;8.764;2023-04-21T00:38:44;101977.13;;;9.56;71.82
54920;BME280;63804;53.120;8.764;2023-04-21T00:41:11;101978.06;;;9.55;71.92
54920;BME280;63804;53.120;8.764;2023-04-21T00:44:01;101974.34;;;9.59;71.75
54920;BME280;63804;53.120;8.764;2023-04-21T00:46:28;101965.84;;;9.52;71.96
54920;BME280;63804;53.120;8.764;2023-04-21T00:48:56;101958.72;;;9.54;72.02
54920;BME280;63804;53.120;8.764;2023-04-21T00:51:25;101961.16;;;9.57;71.88
54920;BME280;63804;53.120;8.764;2023-04-21T00:53:54;101963.19;;;9.52;72.24
54920;BME280;63804;53.120;8.764;2023-04-21T00:56:21;101964.38;;;9.46;72.25
54920;BME280;63804;53.120;8.764;2023-04-21T00:58:49;101960.94;;;9.44;72.33
54920;BME280;63804;53.120;8.764;2023-04-21T01:01:16;101960.09;;;9.44;72.26
54920;BME280;63804;53.120;8.764;2023-04-21T01:03:44;101974.06;;;9.46;72.42
54920;BME280;63804;53.120;8.764;2023-04-21T01:06:13;101965.94;;;9.50;72.28
54920;BME280;63804;53.120;8.764;2023-04-21T01:08:41;101960.00;;;9.45;72.19
54920;BME280;63804;53.120;8.764;2023-04-21T01:11:12;101954.81;;;9.44;72.11
54920;BME280;63804;53.120;8.764;2023-04-21T01:13:40;101957.50;;;9.42;72.37
54920;BME280;63804;53.120;8.764;2023-04-21T01:16:07;101951.44;;;9.40;72.28
54920;BME280;63804;53.120;8.764;2023-04-21T01:18:34;101953.84;;;9.45;72.18
54920;BME280;63804;53.120;8.764;2023-04-21T01:21:02;101958.22;;;9.46;71.90
54920;BME280;63804;53.120;8.764;2023-04-21T01:23:30;101951.31;;;9.43;71.94
54920;BME280;63804;53.120;8.764;2023-04-21T01:25:57;101942.56;;;9.41;71.91
54920;BME280;63804;53.120;8.764;2023-04-21T01:28:24;101942.56;;;9.41;71.89
54920;BME280;63804;53.120;8.764;2023-04-21T01:30:52;101953.25;;;9.40;71.99
54920;BME280;63804;53.120;8.764;2023-04-21T01:33:20;101937.28;;;9.41;71.87
54920;BME280;63804;53.120;8.764;2023-04-21T01:35:47;101946.25;;;9.39;72.29
54920;BME280;63804;53.120;8.764;2023-04-21T01:38:14;101944.00;;;9.31;72.05
54920;BME280;63804;53.120;8.764;2023-04-21T01:40:47;101943.81;;;9.34;72.00
54920;BME280;63804;53.120;8.764;2023-04-21T01:43:17;101933.22;;;9.34;71.84
54920;BME280;63804;53.120;8.764;2023-04-21T01:45:44;101932.75;;;9.26;72.19
54920;BME280;63804;53.120;8.764;2023-04-21T01:48:12;101927.47;;;9.26;72.06
54920;BME280;63804;53.120;8.764;2023-04-21T01:50:40;101931.06;;;9.25;72.17
54920;BME280;63804;53.120;8.764;2023-04-21T01:53:07;101926.78;;;9.22;72.30
54920;BME280;63804;53.120;8.764;2023-04-21T01:55:34;101931.06;;;9.25;72.09
54920;BME280;63804;53.120;8.764;2023-04-21T01:58:01;101926.47;;;9.28;71.82
54920;BME280;63804;53.120;8.764;2023-04-21T02:00:28;101924.59;;;9.31;72.17
54920;BME280;63804;53.120;8.764;2023-04-21T02:02:58;101927.41;;;9.27;72.23
54920;BME280;63804;53.120;8.764;2023-04-21T02:05:25;101928.41;;;9.25;72.18
54920;BME280;63804;53.120;8.764;2023-04-21T02:07:52;101920.25;;;9.30;72.17
54920;BME280;63804;53.120;8.764;2023-04-21T02:10:19;101925.63;;;9.28;72.27
54920;BME280;63804;53.120;8.764;2023-04-21T02:12:46;101920.41;;;9.26;72.30
54920;BME280;63804;53.120;8.764;2023-04-21T02:15:13;101910.53;;;9.30;72.05
54920;BME280;63804;53.120;8.764;2023-04-21T02:17:40;101924.53;;;9.32;72.26
54920;BME280;63804;53.120;8.764;2023-04-21T02:20:09;101921.34;;;9.25;72.03
54920;BME280;63804;53.120;8.764;2023-04-21T02:22:38;101921.34;;;9.25;72.07
54920;BME280;63804;53.120;8.764;2023-04-21T02:25:06;101921.75;;;9.35;72.02
54920;BME280;63804;53.120;8.764;2023-04-21T02:27:33;101915.81;;;9.30;72.10
54920;BME280;63804;53.120;8.764;2023-04-21T02:30:00;101927.56;;;9.24;72.25
54920;BME280;63804;53.120;8.764;2023-04-21T02:32:27;101920.56;;;9.23;72.41
54920;BME280;63804;53.120;8.764;2023-04-21T02:34:54;101917.06;;;9.23;71.95
54920;BME280;63804;53.120;8.764;2023-04-21T02:37:22;101915.19;;;9.25;72.26
54920;BME280;63804;53.120;8.764;2023-04-21T02:39:49;101920.19;;;9.31;72.11
54920;BME280;63804;53.120;8.764;2023-04-21T02:42:16;101912.09;;;9.34;71.99
54920;BME280;63804;53.120;8.764;2023-04-21T02:44:43;101917.47;;;9.33;71.86
54920;BME280;63804;53.120;8.764;2023-04-21T02:47:10;101922.28;;;9.24;72.21
54920;BME280;63804;53.120;8.764;2023-04-21T02:49:41;101917.06;;;9.23;72.06
54920;BME280;63804;53.120;8.764;2023-04-21T02:52:08;101909.06;;;9.24;72.02
54920;BME280;63804;53.120;8.764;2023-04-21T02:54:35;101923.22;;;9.23;72.12
54920;BME280;63804;53.120;8.764;2023-04-21T02:57:02;101923.41;;;9.19;72.05
54920;BME280;63804;53.120;8.764;2023-04-21T02:59:29;101909.44;;;9.17;72.28
54920;BME280;63804;53.120;8.764;2023-04-21T03:01:56;101924.34;;;9.18;72.16
54920;BME280;63804;53.120;8.764;2023-04-21T03:04:23;101905.72;;;9.21;72.03
54920;BME280;63804;53.120;8.764;2023-04-21T03:06:52;101910.91;;;9.22;71.78
54920;BME280;63804;53.120;8.764;2023-04-21T03:09:19;101914.19;;;9.27;71.69
54920;BME280;63804;53.120;8.764;2023-04-21T03:11:47;101909.91;;;9.25;71.50
54920;BME280;63804;53.120;8.764;2023-04-21T03:14:14;101912.69;;;9.22;72.03
54920;BME280;63804;53.120;8.764;2023-04-21T03:16:41;101907.56;;;9.19;71.91
54920;BME280;63804;53.120;8.764;2023-04-21T03:19:08;101899.56;;;9.20;71.88
54920;BME280;63804;53.120;8.764;2023-04-21T03:21:36;101904.16;;;9.17;72.00
54920;BME280;63804;53.120;8.764;2023-04-21T03:24:05;101904.16;;;9.17;72.01
54920;BME280;63804;53.120;8.764;2023-04-21T03:26:32;101904.31;;;9.14;72.24
54920;BME280;63804;53.120;8.764;2023-04-21T03:28:59;101901.66;;;9.14;72.47
54920;BME280;63804;53.120;8.764;2023-04-21T03:31:26;101904.22;;;9.15;72.05
54920;BME280;63804;53.120;8.764;2023-04-21T03:33:53;101901.75;;;9.12;72.44
54920;BME280;63804;53.120;8.764;2023-04-21T03:36:20;101892.78;;;9.15;72.34
54920;BME280;63804;53.120;8.764;2023-04-21T03:38:47;101900.72;;;9.15;72.41
54920;BME280;63804;53.120;8.764;2023-04-21T03:41:14;101899.88;;;9.14;72.35
54920;BME280;63804;53.120;8.764;2023-04-21T03:43:41;101899.72;;;9.17;72.17
54920;BME280;63804;53.120;8.764;2023-04-21T03:46:16;101900.44;;;9.21;71.98
54920;BME280;63804;53.120;8.764;2023-04-21T03:48:44;101909.34;;;9.18;72.13
54920;BME280;63804;53.120;8.764;2023-04-21T03:51:11;101907.56;;;9.19;71.99
54920;BME280;63804;53.120;8.764;2023-04-21T03:53:38;101907.75;;;9.16;71.94
54920;BME280;63804;53.120;8.764;2023-04-21T03:56:06;101906.94;;;9.14;72.14
54920;BME280;63804;53.120;8.764;2023-04-21T03:58:33;101900.66;;;9.16;71.89
54920;BME280;63804;53.120;8.764;2023-04-21T04:01:01;101890.00;;;9.18;71.91
54920;BME280;63804;53.120;8.764;2023-04-21T04:03:28;101898.44;;;9.07;72.10
54920;BME280;63804;53.120;8.764;2023-04-21T04:05:55;101901.03;;;9.09;71.91
54920;BME280;63804;53.120;8.764;2023-04-21T04:08:22;101894.03;;;9.08;71.98
54920;BME280;63804;53.120;8.764;2023-04-21T04:10:49;101893.97;;;9.09;71.93
54920;BME280;63804;53.120;8.764;2023-04-21T04:13:16;101895.75;;;9.09;71.96
54920;BME280;63804;53.120;8.764;2023-04-21T04:15:43;101890.47;;;9.09;71.85
54920;BME280;63804;53.120;8.764;2023-04-21T04:18:10;101882.59;;;9.07;72.07
54920;BME280;63804;53.120;8.764;2023-04-21T04:20:37;101889.69;;;9.07;72.07
54920;BME280;63804;53.120;8.764;2023-04-21T04:23:03;101893.25;;;9.06;71.79
54920;BME280;63804;53.120;8.764;2023-04-21T04:25:30;101898.53;;;9.06;72.06
54920;BME280;63804;53.120;8.764;2023-04-21T04:27:58;101898.44;;;9.07;71.73
54920;BME280;63804;53.120;8.764;2023-04-21T04:30:26;101893.31;;;9.04;71.99
54920;BME280;63804;53.120;8.764;2023-04-21T04:32:55;101899.16;;;9.11;71.83
54920;BME280;63804;53.120;8.764;2023-04-21T04:35:23;101900.09;;;9.10;71.79
54920;BME280;63804;53.120;8.764;2023-04-21T04:37:50;101907.09;;;9.11;71.71
54920;BME280;63804;53.120;8.764;2023-04-21T04:40:17;101900.00;;;9.11;71.52
54920;BME280;63804;53.120;8.764;2023-04-21T04:42:44;101907.03;;;9.12;71.86
54920;BME280;63804;53.120;8.764;2023-04-21T04:45:12;101907.78;;;9.14;71.72
54920;BME280;63804;53.120;8.764;2023-04-21T04:47:39;101911.53;;;9.10;71.67
54920;BME280;63804;53.120;8.764;2023-04-21T04:50:07;101910.38;;;9.16;72.00
54920;BME280;63804;53.120;8.764;2023-04-21T04:52:34;101916.44;;;9.18;71.86
54920;BME280;63804;53.120;8.764;2023-04-21T04:55:01;101916.50;;;9.16;71.81
54920;BME280;63804;53.120;8.764;2023-04-21T04:57:29;101916.34;;;9.19;71.48
54920;BME280;63804;53.120;8.764;2023-04-21T04:59:56;101924.06;;;9.24;71.53
54920;BME280;63804;53.120;8.764;2023-04-21T05:02:23;101923.84;;;9.28;71.33
54920;BME280;63804;53.120;8.764;2023-04-21T05:04:50;101923.59;;;9.33;71.46
54920;BME280;63804;53.120;8.764;2023-04-21T05:07:17;101922.66;;;9.34;71.53
54920;BME280;63804;53.120;8.764;2023-04-21T05:09:45;101928.81;;;9.35;71.13
54920;BME280;63804;53.120;8.764;2023-04-21T05:12:12;101914.97;;;9.30;71.33
54920;BME280;63804;53.120;8.764;2023-04-21T05:14:39;101922.03;;;9.29;71.44
54920;BME280;63804;53.120;8.764;2023-04-21T05:17:06;101918.53;;;9.28;71.71
54920;BME280;63804;53.120;8.764;2023-04-21T05:19:36;101920.81;;;9.36;71.40
54920;BME280;63804;53.120;8.764;2023-04-21T05:22:03;101915.44;;;9.38;71.66
54920;BME280;63804;53.120;8.764;2023-04-21T05:24:33;101922.13;;;9.45;71.65
54920;BME280;63804;53.120;8.764;2023-04-21T05:27:00;101920.97;;;9.50;71.10
54920;BME280;63804;53.120;8.764;2023-04-21T05:29:28;101919.66;;;9.59;71.08
54920;BME280;63804;53.120;8.764;2023-04-21T05:31:56;101923.63;;;9.68;70.94
54920;BME280;63804;53.120;8.764;2023-04-21T05:34:23;101922.84;;;9.66;70.92
54920;BME280;63804;53.120;8.764;2023-04-21T05:36:50;101925.94;;;9.74;70.84
54920;BME280;63804;53.120;8.764;2023-04-21T05:39:18;101935.28;;;9.81;70.90
54920;BME280;63804;53.120;8.764;2023-04-21T05:41:44;101920.03;;;9.86;70.64
54920;BME280;63804;53.120;8.764;2023-04-21T05:44:11;101921.56;;;9.90;70.65
54920;BME280;63804;53.120;8.764;2023-04-21T05:46:39;101925.72;;;9.96;70.52
54920;BME280;63804;53.120;8.764;2023-04-21T05:49:06;101932.59;;;9.98;70.87
54920;BME280;63804;53.120;8.764;2023-04-21T05:51:33;101934.09;;;10.04;70.69
54920;BME280;63804;53.120;8.764;2023-04-21T05:54:00;101929.56;;;10.06;70.84
54920;BME280;63804;53.120;8.764;2023-04-21T05:56:27;101918.66;;;10.12;70.76
54920;BME280;63804;53.120;8.764;2023-04-21T05:58:54;101919.19;;;10.19;70.71
54920;BME280;63804;53.120;8.764;2023-04-21T06:01:21;101918.81;;;10.27;70.29
54920;BME280;63804;53.120;8.764;2023-04-21T06:03:48;101922.91;;;10.32;70.35
54920;BME280;63804;53.120;8.764;2023-04-21T06:06:16;101922.59;;;10.38;70.12
54920;BME280;63804;53.120;8.764;2023-04-21T06:08:43;101917.91;;;10.43;69.94
54920;BME280;63804;53.120;8.764;2023-04-21T06:11:10;101913.38;;;10.45;69.42
54920;BME280;63804;53.120;8.764;2023-04-21T06:13:37;101902.38;;;10.53;69.29
54920;BME280;63804;53.120;8.764;2023-04-21T06:16:06;101893.38;;;10.56;69.05
54920;BME280;63804;53.120;8.764;2023-04-21T06:18:33;101895.78;;;10.60;68.94
54920;BME280;63804;53.120;8.764;2023-04-21T06:21:00;101899.31;;;10.61;69.11
54920;BME280;63804;53.120;8.764;2023-04-21T06:23:27;101902.38;;;10.69;68.74
54920;BME280;63804;53.120;8.764;2023-04-21T06:26:04;101897.50;;;10.77;68.81
54920;BME280;63804;53.120;8.764;2023-04-21T06:28:33;101888.50;;;10.80;68.30
54920;BME280;63804;53.120;8.764;2023-04-21T06:31:01;101883.81;;;10.85;68.24
54920;BME280;63804;53.120;8.764;2023-04-21T06:33:29;101900.28;;;10.90;68.06
54920;BME280;63804;53.120;8.764;2023-04-21T06:35:56;101898.22;;;10.95;68.05
54920;BME280;63804;53.120;8.764;2023-04-21T06:38:23;101897.91;;;11.01;68.16
54920;BME280;63804;53.120;8.764;2023-04-21T06:40:51;101894.22;;;11.04;67.75
54920;BME280;63804;53.120;8.764;2023-04-21T06:43:17;101895.47;;;11.12;67.94
54920;BME280;63804;53.120;8.764;2023-04-21T06:45:44;101893.50;;;11.16;67.73
54920;BME280;63804;53.120;8.764;2023-04-21T06:48:11;101898.66;;;11.19;67.75
54920;BME280;63804;53.120;8.764;2023-04-21T06:50:38;101895.03;;;11.20;67.50
54920;BME280;63804;53.120;8.764;2023-04-21T06:53:06;101897.06;;;11.31;67.55
54920;BME280;63804;53.120;8.764;2023-04-21T06:55:35;101888.16;;;11.32;67.10
54920;BME280;63804;53.120;8.764;2023-04-21T06:58:03;101884.22;;;11.39;67.33
54920;BME280;63804;53.120;8.764;2023-04-21T07:00:30;101882.06;;;11.45;67.16
54920;BME280;63804;53.120;8.764;2023-04-21T07:02:57;101884.44;;;11.50;66.99
54920;BME280;63804;53.120;8.764;2023-04-21T07:05:24;101884.94;;;11.57;67.06
54920;BME280;63804;53.120;8.764;2023-04-21T07:07:51;101885.84;;;11.56;66.55
54920;BME280;63804;53.120;8.764;2023-04-21T07:10:20;101885.84;;;11.56;66.61
54920;BME280;63804;53.120;8.764;2023-04-21T07:12:47;101881.91;;;11.63;66.92
54920;BME280;63804;53.120;8.764;2023-04-21T07:15:14;101873.41;;;11.72;66.58
54920;BME280;63804;53.120;8.764;2023-04-21T07:17:42;101884.56;;;11.77;66.40
54920;BME280;63804;53.120;8.764;2023-04-21T07:20:09;101875.66;;;11.78;66.14
54920;BME280;63804;53.120;8.764;2023-04-21T07:22:36;101878.84;;;11.85;65.98
54920;BME280;63804;53.120;8.764;2023-04-21T07:25:04;101880.25;;;11.90;66.08
54920;BME280;63804;53.120;8.764;2023-04-21T07:27:34;101881.50;;;11.99;65.89
54920;BME280;63804;53.120;8.764;2023-04-21T07:30:05;101867.56;;;11.95;65.78
54920;BME280;63804;53.120;8.764;2023-04-21T07:32:32;101872.88;;;12.10;65.70
54920;BME280;63804;53.120;8.764;2023-04-21T07:34:59;101867.75;;;12.21;64.89
54920;BME280;63804;53.120;8.764;2023-04-21T07:37:27;101869.47;;;12.22;64.82
54920;BME280;63804;53.120;8.764;2023-04-21T07:39:54;101861.19;;;12.27;64.74
54920;BME280;63804;53.120;8.764;2023-04-21T07:42:21;101858.44;;;12.28;64.49
54920;BME280;63804;53.120;8.764;2023-04-21T07:44:49;101857.88;;;12.37;64.64
54920;BME280;63804;53.120;8.764;2023-04-21T07:47:16;101853.88;;;12.44;64.39
54920;BME280;63804;53.120;8.764;2023-04-21T07:49:43;101842.47;;;12.42;64.01
54920;BME280;63804;53.120;8.764;2023-04-21T07:52:10;101851.75;;;12.50;64.10
54920;BME280;63804;53.120;8.764;2023-04-21T07:54:37;101846.81;;;12.58;63.93
54920;BME280;63804;53.120;8.764;2023-04-21T07:57:04;101840.13;;;12.65;63.57
54920;BME280;63804;53.120;8.764;2023-04-21T07:59:32;101845.25;;;12.68;63.82
54920;BME280;63804;53.120;8.764;2023-04-21T08:02:00;101840.09;;;12.79;63.42
54920;BME280;63804;53.120;8.764;2023-04-21T08:04:27;101838.81;;;12.85;63.34
54920;BME280;63804;53.120;8.764;2023-04-21T08:06:55;101843.56;;;12.94;63.14
54920;BME280;63804;53.120;8.764;2023-04-21T08:09:22;101836.78;;;13.03;62.86
54920;BME280;63804;53.120;8.764;2023-04-21T08:11:49;101842.44;;;13.11;62.80
54920;BME280;63804;53.120;8.764;2023-04-21T08:14:16;101843.84;;;13.16;62.73
54920;BME280;63804;53.120;8.764;2023-04-21T08:16:44;101842.28;;;13.27;62.11
54920;BME280;63804;53.120;8.764;2023-04-21T08:19:11;101837.72;;;13.29;61.69
54920;BME280;63804;53.120;8.764;2023-04-21T08:21:38;101837.59;;;13.30;61.98
54920;BME280;63804;53.120;8.764;2023-04-21T08:24:05;101837.28;;;13.35;61.48
54920;BME280;63804;53.120;8.764;2023-04-21T08:26:33;101837.84;;;13.40;60.54
54920;BME280;63804;53.120;8.764;2023-04-21T08:29:01;101837.09;;;13.38;60.48
54920;BME280;63804;53.120;8.764;2023-04-21T08:31:30;101829.00;;;13.39;60.53
54920;BME280;63804;53.120;8.764;2023-04-21T08:33:57;101840.59;;;13.38;60.46
54920;BME280;63804;53.120;8.764;2023-04-21T08:36:28;101842.63;;;13.48;60.66
54920;BME280;63804;53.120;8.764;2023-04-21T08:38:56;101837.72;;;13.54;60.33
54920;BME280;63804;53.120;8.764;2023-04-21T08:41:24;101843.81;;;13.56;60.26
54920;BME280;63804;53.120;8.764;2023-04-21T08:43:51;101837.44;;;13.59;59.86
54920;BME280;63804;53.120;8.764;2023-04-21T08:46:18;101833.41;;;13.66;59.94
54920;BME280;63804;53.120;8.764;2023-04-21T08:48:46;101830.41;;;13.71;59.78
54920;BME280;63804;53.120;8.764;2023-04-21T08:51:20;101829.53;;;13.83;59.56
54920;BME280;63804;53.120;8.764;2023-04-21T08:53:47;101825.91;;;13.84;59.63
54920;BME280;63804;53.120;8.764;2023-04-21T08:56:14;101826.00;;;13.95;59.25
54920;BME280;63804;53.120;8.764;2023-04-21T08:58:41;101815.16;;;13.98;58.91
54920;BME280;63804;53.120;8.764;2023-04-21T09:01:08;101804.66;;;14.08;58.90
54920;BME280;63804;53.120;8.764;2023-04-21T09:03:35;101811.81;;;14.07;58.85
54920;BME280;63804;53.120;8.764;2023-04-21T09:06:07;101812.22;;;14.14;58.58
54920;BME280;63804;53.120;8.764;2023-04-21T09:08:42;101807.75;;;14.27;58.38
54920;BME280;63804;53.120;8.764;2023-04-21T09:11:12;101806.75;;;14.28;58.28
54920;BME280;63804;53.120;8.764;2023-04-21T09:13:41;101800.25;;;14.32;58.13
54920;BME280;63804;53.120;8.764;2023-04-21T09:16:19;101794.88;;;14.45;58.00
54920;BME280;63804;53.120;8.764;2023-04-21T09:18:49;101793.81;;;14.48;57.93
54920;BME280;63804;53.120;8.764;2023-04-21T09:21:18;101802.97;;;14.56;56.91
54920;BME280;63804;53.120;8.764;2023-04-21T09:23:50;101799.38;;;14.69;56.57
54920;BME280;63804;53.120;8.764;2023-04-21T09:26:19;101801.31;;;14.67;56.86
54920;BME280;63804;53.120;8.764;2023-04-21T09:28:50;101795.66;;;14.71;57.28
54920;BME280;63804;53.120;8.764;2023-04-21T09:31:20;101799.34;;;14.81;56.87
54920;BME280;63804;53.120;8.764;2023-04-21T09:33:53;101793.53;;;14.87;56.64
54920;BME280;63804;53.120;8.764;2023-04-21T09:36:28;101794.28;;;14.90;56.28
54920;BME280;63804;53.120;8.764;2023-04-21T09:39:01;101790.19;;;14.97;56.27
54920;BME280;63804;53.120;8.764;2023-04-21T09:41:48;101786.22;;;15.14;55.13
54920;BME280;63804;53.120;8.764;2023-04-21T09:44:15;101783.09;;;15.20;53.97
54920;BME280;63804;53.120;8.764;2023-04-21T09:46:47;101780.91;;;15.25;53.51
54920;BME280;63804;53.120;8.764;2023-04-21T09:49:16;101786.63;;;15.31;52.95
54920;BME280;63804;53.120;8.764;2023-04-21T09:51:44;101776.56;;;15.35;52.37
54920;BME280;63804;53.120;8.764;2023-04-21T09:54:19;101773.28;;;15.31;52.79
54920;BME280;63804;53.120;8.764;2023-04-21T09:56:58;101768.34;;;15.38;52.99
54920;BME280;63804;53.120;8.764;2023-04-21T09:59:29;101759.81;;;15.44;52.88
54920;BME280;63804;53.120;8.764;2023-04-21T10:01:59;101768.09;;;15.52;52.35
54920;BME280;63804;53.120;8.764;2023-04-21T10:04:27;101758.63;;;15.59;51.93
54920;BME280;63804;53.120;8.764;2023-04-21T10:06:55;101754.06;;;15.73;51.15
54920;BME280;63804;53.120;8.764;2023-04-21T10:09:24;101755.63;;;15.75;50.99
54920;BME280;63804;53.120;8.764;2023-04-21T10:11:53;101743.22;;;15.86;50.32
54920;BME280;63804;53.120;8.764;2023-04-21T10:14:21;101742.63;;;15.93;49.77
54920;BME280;63804;53.120;8.764;2023-04-21T10:16:55;101745.16;;;15.95;50.27
54920;BME280;63804;53.120;8.764;2023-04-21T10:19:25;101739.19;;;16.02;49.82
54920;BME280;63804;53.120;8.764;2023-04-21T10:21:55;101732.97;;;16.13;48.76
54920;BME280;63804;53.120;8.764;2023-04-21T10:24:36;101730.91;;;16.17;49.11
54920;BME280;63804;53.120;8.764;2023-04-21T10:27:04;101725.78;;;16.25;48.60
54920;BME280;63804;53.120;8.764;2023-04-21T10:29:35;101728.66;;;16.33;47.50
54920;BME280;63804;53.120;8.764;2023-04-21T10:32:38;101725.28;;;16.31;46.24
54920;BME280;63804;53.120;8.764;2023-04-21T10:35:12;101718.28;;;16.19;47.08
54920;BME280;63804;53.120;8.764;2023-04-21T10:37:40;101716.81;;;16.26;46.62
54920;BME280;63804;53.120;8.764;2023-04-21T10:43:41;101719.97;;;16.52;46.48
54920;BME280;63804;53.120;8.764;2023-04-21T10:46:36;101711.50;;;16.47;46.60
54920;BME280;63804;53.120;8.764;2023-04-21T10:54:36;101694.91;;;16.64;46.36
54920;BME280;63804;53.120;8.764;2023-04-21T10:57:08;101691.09;;;16.46;46.28
54920;BME280;63804;53.120;8.764;2023-04-21T10:59:36;101685.94;;;16.54;46.72
54920;BME280;63804;53.120;8.764;2023-04-21T11:02:21;101679.16;;;16.71;46.06
54920;BME280;63804;53.120;8.764;2023-04-21T11:04:52;101682.34;;;16.76;46.40
54920;BME280;63804;53.120;8.764;2023-04-21T11:07:22;101675.88;;;16.99;45.36
54920;BME280;63804;53.120;8.764;2023-04-21T11:10:05;101670.69;;;17.08;44.31
54920;BME280;63804;53.120;8.764;2023-04-21T11:12:37;101666.44;;;17.05;45.19
54920;BME280;63804;53.120;8.764;2023-04-21T11:15:07;101657.81;;;17.22;44.19
54920;BME280;63804;53.120;8.764;2023-04-21T11:17:35;101660.75;;;17.19;43.91
54920;BME280;63804;53.120;8.764;2023-04-21T11:20:06;101651.78;;;17.30;43.33
54920;BME280;63804;53.120;8.764;2023-04-21T11:22:35;101653.25;;;17.44;42.05
54920;BME280;63804;53.120;8.764;2023-04-21T11:25:03;101639.19;;;17.51;40.35
54920;BME280;63804;53.120;8.764;2023-04-21T11:27:30;101632.00;;;17.52;40.42
54920;BME280;63804;53.120;8.764;2023-04-21T11:29:57;101638.59;;;17.48;39.30
54920;BME280;63804;53.120;8.764;2023-04-21T11:32:24;101639.88;;;17.44;38.90
54920;BME280;63804;53.120;8.764;2023-04-21T11:34:51;101628.00;;;17.37;38.32
54920;BME280;63804;53.120;8.764;2023-04-21T11:37:23;101631.88;;;17.63;37.23
54920;BME280;63804;53.120;8.764;2023-04-21T11:39:59;101631.94;;;17.83;36.56
54920;BME280;63804;53.120;8.764;2023-04-21T11:42:26;101617.97;;;17.89;35.94
54920;BME280;63804;53.120;8.764;2023-04-21T11:44:54;101608.22;;;17.78;37.00
54920;BME280;63804;53.120;8.764;2023-04-21T11:47:24;101613.34;;;17.91;37.07
54920;BME280;63804;53.120;8.764;2023-04-21T11:52:33;101606.84;;;17.84;37.89
54920;BME280;63804;53.120;8.764;2023-04-21T11:55:09;101606.41;;;17.78;37.14
54920;BME280;63804;53.120;8.764;2023-04-21T11:57:38;101603.03;;;17.86;37.24
54920;BME280;63804;53.120;8.764;2023-04-21T12:00:08;101590.78;;;18.03;36.77
54920;BME280;63804;53.120;8.764;2023-04-21T12:02:39;101594.44;;;18.02;35.24
54920;BME280;63804;53.120;8.764;2023-04-21T12:05:10;101589.78;;;18.04;36.29
54920;BME280;63804;53.120;8.764;2023-04-21T12:07:40;101594.16;;;18.15;35.90
54920;BME280;63804;53.120;8.764;2023-04-21T12:10:13;101579.31;;;18.30;35.78
54920;BME280;63804;53.120;8.764;2023-04-21T12:12:41;101587.06;;;18.52;35.30
54920;BME280;63804;53.120;8.764;2023-04-21T12:15:10;101571.22;;;18.59;34.70
54920;BME280;63804;53.120;8.764;2023-04-21T12:17:47;101570.63;;;18.65;34.53
54920;BME280;63804;53.120;8.764;2023-04-21T12:20:17;101562.56;;;18.65;34.23
54920;BME280;63804;53.120;8.764;2023-04-21T12:22:45;101567.53;;;18.70;34.21
54920;BME280;63804;53.120;8.764;2023-04-21T12:25:12;101570.50;;;18.57;33.95
54920;BME280;63804;53.120;8.764;2023-04-21T12:27:55;101568.66;;;18.58;32.78
54920;BME280;63804;53.120;8.764;2023-04-21T12:30:23;101559.38;;;18.52;33.98
54920;BME280;63804;53.120;8.764;2023-04-21T12:32:50;101563.47;;;18.46;33.53
54920;BME280;63804;53.120;8.764;2023-04-21T12:35:18;101545.13;;;18.51;33.96
54920;BME280;63804;53.120;8.764;2023-04-21T12:37:45;101551.50;;;18.41;34.18
54920;BME280;63804;53.120;8.764;2023-04-21T12:40:12;101552.94;;;18.25;34.64
54920;BME280;63804;53.120;8.764;2023-04-21T12:42:39;101546.31;;;18.30;34.95
54920;BME280;63804;53.120;8.764;2023-04-21T12:45:06;101539.22;;;18.48;34.06
54920;BME280;63804;53.120;8.764;2023-04-21T12:47:34;101542.13;;;18.64;34.18
54920;BME280;63804;53.120;8.764;2023-04-21T12:50:03;101539.84;;;18.79;33.54
54920;BME280;63804;53.120;8.764;2023-04-21T12:52:30;101529.38;;;18.86;33.52
54920;BME280;63804;53.120;8.764;2023-04-21T12:54:57;101537.97;;;18.89;32.88
54920;BME280;63804;53.120;8.764;2023-04-21T12:57:23;101525.38;;;18.90;32.91
54920;BME280;63804;53.120;8.764;2023-04-21T12:59:51;101517.34;;;18.90;33.26
54920;BME280;63804;53.120;8.764;2023-04-21T13:02:18;101514.03;;;18.96;33.62
54920;BME280;63804;53.120;8.764;2023-04-21T13:04:45;101516.97;;;19.03;33.79
54920;BME280;63804;53.120;8.764;2023-04-21T13:07:12;101513.84;;;19.07;32.50
54920;BME280;63804;53.120;8.764;2023-04-21T13:09:40;101505.31;;;18.94;32.65
54920;BME280;63804;53.120;8.764;2023-04-21T13:12:07;101507.34;;;19.10;31.58
54920;BME280;63804;53.120;8.764;2023-04-21T13:14:34;101505.41;;;19.02;31.72